Time;durP1;ratioP1;P1;durP2;ratioP2;P2;SDS_P1;SDS_P2;PMS_P1;PMS_P2;Temp;Humidity;BMP_temperature;BMP_pressure;BME280_temperature;BME280_humidity;BME280_pressure;Samples;Min_cycle;Max_cycle;Signal;HPM_P1;HPM_P2
2022/06/30 00:02:22;;;;;;;;;;;;;;;22.92;79.29;96946.18;575551;246;65018;-68
2022/06/30 00:04:49;;;;;;;;;;;;;;;22.92;79.29;96953.42;575529;246;69245;-68
2022/06/30 00:07:17;;;;;;;;;;;;;;;22.91;79.31;96949.13;575536;246;66485;-68
2022/06/30 00:09:45;;;;;;;;;;;;;;;22.92;79.31;96942.70;575593;246;64968;-68
2022/06/30 00:12:12;;;;;;;;;;;;;;;22.92;79.38;96950.75;575511;246;68794;-68
2022/06/30 00:14:40;;;;;;;;;;;;;;;22.92;79.38;96950.75;575540;246;68560;-69
2022/06/30 00:17:07;;;;;;;;;;;;;;;22.92;79.39;96948.07;575554;246;64899;-68
2022/06/30 00:19:35;;;;;;;;;;;;;;;22.92;79.33;96951.54;575539;246;68425;-68
2022/06/30 00:22:05;;;;;;;;;;;;;;;22.92;79.38;96953.42;575545;246;68614;-68
2022/06/30 00:24:32;;;;;;;;;;;;;;;22.92;79.42;96954.22;575558;246;65126;-68
2022/06/30 00:26:59;;;;;;;;;;;;;;;22.91;79.43;96949.13;575501;246;68939;-68
2022/06/30 00:29:27;;;;;;;;;;;;;;;22.92;79.36;96948.86;575540;246;66562;-68
2022/06/30 00:31:54;;;;;;;;;;;;;;;22.92;79.20;96950.75;575538;246;62761;-68
2022/06/30 00:34:22;;;;;;;;;;;;;;;22.93;79.28;96957.69;575531;246;66519;-68
2022/06/30 00:36:49;;;;;;;;;;;;;;;22.91;79.30;96955.28;575575;246;68627;-68
2022/06/30 00:39:17;;;;;;;;;;;;;;;22.92;79.24;96958.78;575496;246;62833;-68
2022/06/30 00:41:44;;;;;;;;;;;;;;;22.91;79.20;96952.61;575534;246;66711;-68
2022/06/30 00:44:13;;;;;;;;;;;;;;;22.91;79.28;96955.28;575522;246;66572;-68
2022/06/30 00:46:40;;;;;;;;;;;;;;;22.91;79.34;96952.61;575543;246;65553;-68
2022/06/30 00:49:08;;;;;;;;;;;;;;;22.92;79.44;96945.39;575552;246;68937;-71
2022/06/30 00:51:36;;;;;;;;;;;;;;;22.92;79.46;96951.54;575538;246;68569;-71
2022/06/30 00:54:06;;;;;;;;;;;;;;;22.92;79.45;96945.39;573131;246;65326;-70
2022/06/30 00:56:37;;;;;;;;;;;;;;;22.92;79.47;96945.39;569102;249;66728;-71
2022/06/30 00:59:06;;;;;;;;;;;;;;;22.93;79.46;96938.94;569102;249;69424;-71
2022/06/30 01:01:34;;;;;;;;;;;;;;;22.92;79.34;96937.34;569106;249;62824;-71
2022/06/30 01:04:03;;;;;;;;;;;;;;;22.92;79.41;96934.67;569147;249;66700;-71
2022/06/30 01:06:30;;;;;;;;;;;;;;;22.90;79.44;96921.54;569067;249;68567;-71
2022/06/30 01:08:58;;;;;;;;;;;;;;;22.90;79.50;96921.54;569114;249;64886;-71
2022/06/30 01:14:11;;;;;;;;;;;;;;;22.91;79.58;96919.66;569079;249;68971;-71
2022/06/30 01:16:42;;;;;;;;;;;;;;;22.90;79.64;96915.39;569156;249;64934;-68
2022/06/30 01:19:09;;;;;;;;;;;;;;;22.90;79.62;96918.07;569126;249;66549;-68
2022/06/30 01:21:37;;;;;;;;;;;;;;;22.90;79.56;96926.11;569107;249;66540;-68
2022/06/30 01:24:05;;;;;;;;;;;;;;;22.91;79.54;96927.69;569104;249;64950;-68
2022/06/30 01:26:32;;;;;;;;;;;;;;;22.90;79.57;96923.43;569093;249;68929;-68
2022/06/30 01:29:01;;;;;;;;;;;;;;;22.90;79.53;96924.22;569081;249;68579;-68
2022/06/30 01:31:29;;;;;;;;;;;;;;;22.90;79.54;96920.75;569255;243;64962;-68
2022/06/30 01:33:56;;;;;;;;;;;;;;;22.91;79.54;96922.34;569121;248;68468;-68
2022/06/30 01:36:24;;;;;;;;;;;;;;;22.90;79.54;96916.19;569084;249;68558;-68
2022/06/30 01:38:51;;;;;;;;;;;;;;;22.90;79.50;96921.54;569085;249;64850;-68
2022/06/30 01:41:18;;;;;;;;;;;;;;;22.90;79.40;96923.43;569098;249;66781;-68
2022/06/30 01:43:46;;;;;;;;;;;;;;;22.90;79.36;96926.91;569144;249;66485;-68
2022/06/30 01:46:13;;;;;;;;;;;;;;;22.90;79.30;96915.39;569087;248;62779;-68
2022/06/30 01:48:41;;;;;;;;;;;;;;;22.90;79.38;96923.43;569109;249;66561;-69
2022/06/30 01:51:08;;;;;;;;;;;;;;;22.91;79.37;96922.34;569098;249;66471;-68
2022/06/30 01:53:36;;;;;;;;;;;;;;;22.90;79.32;96921.54;570209;246;62824;-68
2022/06/30 01:56:05;;;;;;;;;;;;;;;22.90;79.40;96926.11;575548;246;46743;-68
2022/06/30 01:58:33;;;;;;;;;;;;;;;22.90;79.32;96934.15;575539;246;68360;-68
2022/06/30 02:01:01;;;;;;;;;;;;;;;22.90;79.37;96923.43;575538;246;64977;-68
2022/06/30 02:03:28;;;;;;;;;;;;;;;22.89;79.48;96929.85;575538;246;68363;-68
2022/06/30 02:05:56;;;;;;;;;;;;;;;22.90;79.54;96926.11;575574;246;66280;-68
2022/06/30 02:08:23;;;;;;;;;;;;;;;22.90;79.72;96924.22;575590;246;62888;-68
2022/06/30 02:10:51;;;;;;;;;;;;;;;22.90;79.68;96920.75;575593;246;66273;-68
2022/06/30 02:13:20;;;;;;;;;;;;;;;22.90;79.66;96921.54;575419;246;68391;-68
2022/06/30 02:15:48;;;;;;;;;;;;;;;22.90;79.73;96913.50;575584;246;64898;-68
2022/06/30 02:18:15;;;;;;;;;;;;;;;22.90;79.78;96926.91;575553;246;69417;-68
2022/06/30 02:20:43;;;;;;;;;;;;;;;22.90;79.82;96926.11;575549;246;68423;-68
2022/06/30 02:23:10;;;;;;;;;;;;;;;22.90;79.79;96926.11;575584;246;65072;-68
2022/06/30 02:25:38;;;;;;;;;;;;;;;22.89;79.82;96919.13;575524;246;68762;-68
2022/06/30 02:28:06;;;;;;;;;;;;;;;22.89;79.74;96914.59;575548;246;66798;-68
2022/06/30 02:30:34;;;;;;;;;;;;;;;22.90;79.84;96923.43;575571;246;62579;-68
2022/06/30 02:33:01;;;;;;;;;;;;;;;22.89;79.78;96921.81;575551;246;66533;-69
2022/06/30 02:35:29;;;;;;;;;;;;;;;22.88;79.75;96923.70;575586;246;66490;-68
2022/06/30 02:37:57;;;;;;;;;;;;;;;22.88;79.75;96918.34;575559;246;62982;-68
2022/06/30 02:40:25;;;;;;;;;;;;;;;22.89;79.75;96921.81;575484;246;69230;-68
2022/06/30 02:42:52;;;;;;;;;;;;;;;22.89;79.71;96921.81;575524;246;68848;-68
2022/06/30 02:45:20;;;;;;;;;;;;;;;22.88;79.85;96915.66;575568;246;65230;-68
2022/06/30 02:47:47;;;;;;;;;;;;;;;22.88;79.90;96912.98;575613;246;68403;-68
2022/06/30 02:50:15;;;;;;;;;;;;;;;22.88;79.90;96922.91;575545;246;68538;-68
2022/06/30 02:52:42;;;;;;;;;;;;;;;22.89;79.81;96919.95;575467;246;64938;-68
2022/06/30 02:55:10;;;;;;;;;;;;;;;22.88;79.68;96920.23;575527;246;68945;-68
2022/06/30 02:57:38;;;;;;;;;;;;;;;22.88;79.59;96917.55;575526;246;68596;-69
2022/06/30 03:00:07;;;;;;;;;;;;;;;22.88;79.58;96920.23;575599;246;62884;-68
2022/06/30 03:02:34;;;;;;;;;;;;;;;22.89;79.63;96924.49;575558;246;68920;-68
2022/06/30 03:05:02;;;;;;;;;;;;;;;22.88;79.66;96925.59;575509;246;68694;-68
2022/06/30 03:07:30;;;;;;;;;;;;;;;22.88;79.75;96920.23;575574;246;64955;-68
2022/06/30 03:09:57;;;;;;;;;;;;;;;22.88;79.93;96930.95;575586;246;68530;-68
2022/06/30 03:12:25;;;;;;;;;;;;;;;22.88;80.02;96925.59;575539;246;69446;-68
2022/06/30 03:14:52;;;;;;;;;;;;;;;22.87;79.93;96924.00;575600;246;65335;-68
2022/06/30 03:17:20;;;;;;;;;;;;;;;22.88;79.94;96923.70;575523;246;68721;-68
2022/06/30 03:19:47;;;;;;;;;;;;;;;22.88;79.90;96922.91;575533;246;68664;-68
2022/06/30 03:22:15;;;;;;;;;;;;;;;22.88;79.93;96922.91;575573;246;64942;-68
2022/06/30 03:24:42;;;;;;;;;;;;;;;22.88;79.94;96928.27;575530;246;68644;-68
2022/06/30 03:27:09;;;;;;;;;;;;;;;22.88;79.89;96926.38;575609;246;68617;-68
2022/06/30 03:29:37;;;;;;;;;;;;;;;22.87;79.85;96922.12;575554;246;64943;-68
2022/06/30 03:32:05;;;;;;;;;;;;;;;22.87;79.83;96922.12;575546;246;68757;-68
2022/06/30 03:34:32;;;;;;;;;;;;;;;22.87;79.86;96916.76;575548;246;66251;-68
2022/06/30 03:37:00;;;;;;;;;;;;;;;22.86;79.80;96920.50;575566;246;62841;-68
2022/06/30 03:39:27;;;;;;;;;;;;;;;22.88;79.86;96925.59;575598;246;66406;-68
2022/06/30 03:41:55;;;;;;;;;;;;;;;22.86;79.80;96923.18;575512;246;66916;-68
2022/06/30 03:44:22;;;;;;;;;;;;;;;22.88;79.77;96928.27;575485;246;63767;-68
2022/06/30 03:46:50;;;;;;;;;;;;;;;22.88;79.69;96922.91;575525;246;68679;-68
2022/06/30 03:49:17;;;;;;;;;;;;;;;22.87;79.76;96916.76;575596;246;68505;-68
2022/06/30 03:51:45;;;;;;;;;;;;;;;22.87;79.70;96921.33;575554;246;64886;-68
2022/06/30 03:54:12;;;;;;;;;;;;;;;22.87;79.84;96921.33;572776;246;68727;-68
2022/06/30 03:56:39;;;;;;;;;;;;;;;22.87;79.74;96930.16;569118;249;68727;-68
2022/06/30 03:59:07;;;;;;;;;;;;;;;22.87;79.74;96927.48;569150;249;65002;-68
2022/06/30 04:01:34;;;;;;;;;;;;;;;22.87;79.75;96924.00;569109;249;68383;-68
2022/06/30 04:04:02;;;;;;;;;;;;;;;22.87;79.75;96918.64;569113;249;68575;-68
2022/06/30 04:06:29;;;;;;;;;;;;;;;22.87;79.88;96921.33;569092;249;64939;-69
2022/06/30 04:08:57;;;;;;;;;;;;;;;22.86;79.81;96920.50;576584;243;68919;-68
2022/06/30 04:11:24;;;;;;;;;;;;;;;22.86;79.86;96931.22;569109;249;68759;-68
2022/06/30 04:13:52;;;;;;;;;;;;;;;22.86;79.81;96930.42;569129;248;64928;-68
2022/06/30 04:16:19;;;;;;;;;;;;;;;22.87;79.86;96937.41;569123;249;68639;-68
2022/06/30 04:18:47;;;;;;;;;;;;;;;22.86;79.96;96925.06;569129;249;68553;-68
2022/06/30 04:21:16;;;;;;;;;;;;;;;22.86;80.04;96919.70;569090;249;62859;-68
2022/06/30 04:23:44;;;;;;;;;;;;;;;22.86;80.16;96914.34;569133;249;68800;-68
2022/06/30 04:26:11;;;;;;;;;;;;;;;22.86;80.23;96917.82;569146;249;68748;-68
2022/06/30 04:28:39;;;;;;;;;;;;;;;22.86;80.23;96917.03;569073;249;64923;-68
2022/06/30 04:33:52;;;;;;;;;;;;;;;22.86;80.11;96917.03;569118;249;68630;-68
2022/06/30 04:36:19;;;;;;;;;;;;;;;22.86;80.13;96917.03;569104;249;66108;-68
2022/06/30 04:38:47;;;;;;;;;;;;;;;22.85;80.18;96913.56;569110;249;68761;-68
2022/06/30 04:41:24;;;;;;;;;;;;;;;22.85;80.31;96920.80;569128;249;68705;-68
2022/06/30 04:43:56;;;;;;;;;;;;;;;22.85;80.35;96918.91;569106;249;62828;-68
2022/06/30 04:46:24;;;;;;;;;;;;;;;22.85;80.45;96918.12;569118;248;68749;-68
2022/06/30 04:48:51;;;;;;;;;;;;;;;22.85;80.52;96913.56;569135;249;68251;-68
2022/06/30 04:51:20;;;;;;;;;;;;;;;22.86;80.41;96919.70;569072;249;64867;-68
2022/06/30 04:53:47;;;;;;;;;;;;;;;22.85;80.44;96923.48;570683;246;68856;-68
2022/06/30 04:56:15;;;;;;;;;;;;;;;22.85;80.48;96924.27;575549;246;68880;-68
2022/06/30 04:58:43;;;;;;;;;;;;;;;22.86;80.49;96925.06;575505;246;62858;-68
2022/06/30 05:01:11;;;;;;;;;;;;;;;22.85;80.59;96918.12;575533;246;68668;-68
2022/06/30 05:03:39;;;;;;;;;;;;;;;22.85;80.56;96918.91;575534;246;68610;-68
2022/06/30 05:06:06;;;;;;;;;;;;;;;22.83;80.50;96916.53;575503;246;63698;-68
2022/06/30 05:08:34;;;;;;;;;;;;;;;22.85;80.51;96918.91;575598;246;68733;-68
2022/06/30 05:11:02;;;;;;;;;;;;;;;22.85;80.68;96918.12;575544;246;66558;-68
2022/06/30 05:13:30;;;;;;;;;;;;;;;22.86;80.75;96925.06;575562;246;62789;-68
2022/06/30 05:15:57;;;;;;;;;;;;;;;22.85;80.87;96920.80;575538;246;66169;-68
2022/06/30 05:18:26;;;;;;;;;;;;;;;22.84;80.81;96917.33;575486;246;66403;-68
2022/06/30 05:20:54;;;;;;;;;;;;;;;22.83;80.96;96923.75;575544;246;64920;-68
2022/06/30 05:23:22;;;;;;;;;;;;;;;22.83;80.98;96929.94;575468;246;68887;-68
2022/06/30 05:28:35;;;;;;;;;;;;;;;22.85;80.78;96936.87;575547;246;65325;-68
2022/06/30 05:31:02;;;;;;;;;;;;;;;22.83;80.87;96935.30;575493;246;68759;-68
2022/06/30 05:33:30;;;;;;;;;;;;;;;22.84;80.77;96933.41;575538;246;68598;-68
2022/06/30 05:35:58;;;;;;;;;;;;;;;22.84;80.83;96944.13;575560;244;65139;-68
2022/06/30 05:38:26;;;;;;;;;;;;;;;22.83;80.95;96937.16;575551;246;66536;-68
2022/06/30 05:40:53;;;;;;;;;;;;;;;22.85;81.04;96939.56;575515;246;66452;-68
2022/06/30 05:43:21;;;;;;;;;;;;;;;22.84;81.13;96933.41;575497;246;62815;-68
2022/06/30 05:45:51;;;;;;;;;;;;;;;22.83;81.00;96932.61;575442;246;66455;-68
2022/06/30 05:48:18;;;;;;;;;;;;;;;22.82;81.05;96933.68;575508;246;68858;-68
2022/06/30 05:50:45;;;;;;;;;;;;;;;22.83;80.92;96935.30;575521;246;65003;-68
2022/06/30 05:53:13;;;;;;;;;;;;;;;22.83;80.95;96929.94;575313;246;66602;-68
2022/06/30 05:55:40;;;;;;;;;;;;;;;22.82;80.99;96931.00;569000;249;66645;-68
2022/06/30 05:58:08;;;;;;;;;;;;;;;22.83;81.05;96939.83;568373;249;65018;-67
2022/06/30 06:00:35;;;;;;;;;;;;;;;22.83;81.26;96939.83;569136;249;68852;-68
2022/06/30 06:03:03;;;;;;;;;;;;;;;22.84;80.90;96938.77;568724;249;68080;-68
2022/06/30 06:05:31;;;;;;;;;;;;;;;22.83;80.59;96940.66;569010;249;65196;-68
2022/06/30 06:08:00;;;;;;;;;;;;;;;22.83;80.85;96937.97;574811;246;68587;-69
2022/06/30 06:10:27;;;;;;;;;;;;;;;22.85;80.97;96944.91;574969;246;68575;-69
2022/06/30 06:12:55;;;;;;;;;;;;;;;22.83;80.85;96943.33;575035;246;64869;-62
2022/06/30 06:15:22;;;;;;;;;;;;;;;22.81;80.66;96942.02;573410;246;68669;-62
2022/06/30 06:17:50;;;;;;;;;;;;;;;22.83;78.85;96946.02;573991;246;67362;-62
2022/06/30 06:20:19;;;;;;;;;;;;;;;22.85;79.58;96944.91;569021;249;63030;-68
2022/06/30 06:22:46;;;;;;;;;;;;;;;22.86;80.15;96941.14;569101;249;68592;-67
2022/06/30 06:25:14;;;;;;;;;;;;;;;22.87;80.90;96935.52;568981;249;68729;-67
2022/06/30 06:27:42;;;;;;;;;;;;;;;22.87;80.88;96942.76;569077;249;65120;-68
2022/06/30 06:30:11;;;;;;;;;;;;;;;22.87;81.25;96932.83;569080;249;68585;-67
2022/06/30 06:32:38;;;;;;;;;;;;;;;22.87;81.61;96932.83;569065;249;68744;-67
2022/06/30 06:35:07;;;;;;;;;;;;;;;22.87;81.73;96940.88;568989;249;62802;-68
2022/06/30 06:37:35;;;;;;;;;;;;;;;22.88;82.08;96936.30;569018;249;69133;-70
2022/06/30 06:40:02;;;;;;;;;;;;;;;22.88;82.17;96933.62;569063;249;68581;-67
2022/06/30 06:42:29;;;;;;;;;;;;;;;22.87;82.33;96927.48;569032;249;64889;-67
2022/06/30 06:44:57;;;;;;;;;;;;;;;22.92;80.57;96930.10;569081;249;68652;-67
2022/06/30 06:47:24;;;;;;;;;;;;;;;22.92;80.38;96919.38;569024;249;68396;-67
2022/06/30 06:49:52;;;;;;;;;;;;;;;22.94;81.21;96927.13;569070;249;65016;-67
2022/06/30 06:52:19;;;;;;;;;;;;;;;22.94;82.19;96921.76;569103;249;68866;-69
2022/06/30 06:54:47;;;;;;;;;;;;;;;22.93;82.12;96920.17;569022;249;68735;-67
2022/06/30 06:57:14;;;;;;;;;;;;;;;22.93;82.20;96922.86;567750;249;62733;-67
2022/06/30 06:59:42;;;;;;;;;;;;;;;22.93;82.33;96914.81;568964;249;66764;-67
2022/06/30 07:02:09;;;;;;;;;;;;;;;22.93;82.42;96923.65;573602;246;66777;-67
2022/06/30 07:04:37;;;;;;;;;;;;;;;22.94;79.74;96927.13;569100;247;63001;-67
2022/06/30 07:07:05;;;;;;;;;;;;;;;22.96;81.56;96924.99;569075;249;68906;-67
2022/06/30 07:09:34;;;;;;;;;;;;;;;22.95;82.52;96928.73;568980;249;68753;-67
2022/06/30 07:12:01;;;;;;;;;;;;;;;22.93;82.06;96929.01;569051;249;63095;-67
2022/06/30 07:14:29;;;;;;;;;;;;;;;22.94;82.40;96925.23;569070;249;66850;-67
2022/06/30 07:16:56;;;;;;;;;;;;;;;22.94;82.56;96919.88;569047;246;65950;-69
2022/06/30 07:19:24;;;;;;;;;;;;;;;22.94;82.60;96922.55;573421;246;64913;-66
2022/06/30 07:21:51;;;;;;;;;;;;;;;22.94;82.50;96917.20;574461;246;68532;-68
2022/06/30 07:24:19;;;;;;;;;;;;;;;22.94;82.23;96917.20;574087;246;66720;-70
2022/06/30 07:26:46;;;;;;;;;;;;;;;22.95;82.66;96915.34;573913;246;62970;-72
2022/06/30 07:29:14;;;;;;;;;;;;;;;22.95;82.25;96912.66;569068;247;66483;-70
2022/06/30 07:31:41;;;;;;;;;;;;;;;22.95;81.90;96912.66;569056;249;68494;-70
2022/06/30 07:34:09;;;;;;;;;;;;;;;22.96;81.71;96914.27;569061;249;65087;-70
2022/06/30 07:36:36;;;;;;;;;;;;;;;22.96;81.57;96912.38;569107;249;68471;-70
2022/06/30 07:39:04;;;;;;;;;;;;;;;22.97;81.55;96915.86;568912;249;68486;-71
2022/06/30 07:41:32;;;;;;;;;;;;;;;23.12;80.60;96912.21;569101;249;65119;-68
2022/06/30 07:44:01;;;;;;;;;;;;;;;23.37;78.97;96909.19;569082;249;68228;-70
2022/06/30 07:46:28;;;;;;;;;;;;;;;23.29;79.57;96917.09;569041;249;68621;-69
2022/06/30 07:48:56;;;;;;;;;;;;;;;23.36;77.43;96912.97;569050;249;65081;-68
2022/06/30 07:51:24;;;;;;;;;;;;;;;23.27;78.60;96909.32;569012;249;68662;-69
2022/06/30 07:53:51;;;;;;;;;;;;;;;23.20;79.46;96915.05;570834;246;68467;-68
2022/06/30 07:56:19;;;;;;;;;;;;;;;23.17;80.81;96915.63;575383;246;65125;-68
2022/06/30 07:58:47;;;;;;;;;;;;;;;23.14;81.69;96912.73;575188;246;68550;-68
2022/06/30 08:01:17;;;;;;;;;;;;;;;23.11;81.87;96915.95;575634;246;69538;-71
2022/06/30 08:03:44;;;;;;;;;;;;;;;23.34;80.12;96915.14;575688;246;64897;-74
2022/06/30 08:06:11;;;;;;;;;;;;;;;23.73;80.34;96913.30;575526;246;68373;-70
2022/06/30 08:08:39;;;;;;;;;;;;;;;23.53;81.51;96907.11;575396;246;68600;-71
2022/06/30 08:11:06;;;;;;;;;;;;;;;23.38;81.00;96913.48;575551;246;65101;-70
2022/06/30 08:13:34;;;;;;;;;;;;;;;23.31;82.55;96913.03;575344;246;68601;-70
2022/06/30 08:16:01;;;;;;;;;;;;;;;23.25;83.26;96917.67;575434;246;68473;-70
2022/06/30 08:18:29;;;;;;;;;;;;;;;23.20;83.57;96907.01;575435;246;62706;-70
2022/06/30 08:20:56;;;;;;;;;;;;;;;23.17;83.85;96910.27;575492;246;68484;-70
2022/06/30 08:23:24;;;;;;;;;;;;;;;23.16;83.90;96918.58;575439;246;68551;-74
2022/06/30 08:25:51;;;;;;;;;;;;;;;23.30;81.20;96919.50;575477;246;65045;-73
2022/06/30 08:28:19;;;;;;;;;;;;;;;23.30;79.32;96914.13;575456;246;66167;-71
2022/06/30 08:30:48;;;;;;;;;;;;;;;23.28;80.25;96916.30;575525;246;66048;-72
2022/06/30 08:33:15;;;;;;;;;;;;;;;23.25;81.21;96914.98;575541;246;65228;-70
2022/06/30 08:35:43;;;;;;;;;;;;;;;23.24;81.47;96913.41;575477;246;66348;-73
2022/06/30 08:38:11;;;;;;;;;;;;;;;23.24;81.93;96918.77;575462;246;66599;-70
2022/06/30 08:43:25;;;;;;;;;;;;;;;23.22;81.92;96915.56;575508;246;68545;-72
2022/06/30 08:45:53;;;;;;;;;;;;;;;23.21;80.02;96916.63;575511;246;68292;-72
2022/06/30 08:48:21;;;;;;;;;;;;;;;23.24;80.02;96920.63;575489;246;63064;-71
2022/06/30 08:50:49;;;;;;;;;;;;;;;23.24;80.80;96918.77;575516;246;66189;-70
2022/06/30 08:53:17;;;;;;;;;;;;;;;23.24;81.94;96915.27;575429;246;67262;-70
2022/06/30 08:55:46;;;;;;;;;;;;;;;23.23;81.99;96916.36;575493;246;62704;-71
2022/06/30 08:58:13;;;;;;;;;;;;;;;23.22;81.44;96918.25;575470;246;68210;-70
2022/06/30 09:00:42;;;;;;;;;;;;;;;23.22;76.99;96917.45;575517;246;68471;-70
2022/06/30 09:03:11;;;;;;;;;;;;;;;23.25;80.23;96916.88;575443;246;63084;-70
2022/06/30 09:05:39;;;;;;;;;;;;;;;23.25;80.03;96916.88;575465;246;66731;-70
2022/06/30 09:08:07;;;;;;;;;;;;;;;23.25;74.18;96916.88;575498;246;68345;-70
2022/06/30 09:10:34;;;;;;;;;;;;;;;23.29;76.04;96909.05;575451;246;64937;-70
2022/06/30 09:13:03;;;;;;;;;;;;;;;23.29;75.84;96907.16;575486;246;68521;-70
2022/06/30 09:15:31;;;;;;;;;;;;;;;23.31;76.06;96906.88;575503;246;68555;-69
2022/06/30 09:18:00;;;;;;;;;;;;;;;23.30;77.52;96905.27;575468;246;65111;-70
2022/06/30 09:20:38;;;;;;;;;;;;;;;23.29;74.10;96895.64;575538;246;68453;-71
2022/06/30 09:23:25;;;;;;;;;;;;;;;23.29;73.88;96907.16;575519;246;66319;-69
2022/06/30 09:25:56;;;;;;;;;;;;;;;23.27;75.85;96903.95;575462;246;65489;-70
2022/06/30 09:28:43;;;;;;;;;;;;;;;23.24;78.97;96908.04;575372;246;66172;-72
2022/06/30 09:31:12;;;;;;;;;;;;;;;23.20;76.83;96909.69;575472;246;66236;-69
2022/06/30 09:33:40;;;;;;;;;;;;;;;23.20;78.07;96909.69;575449;246;65034;-69
2022/06/30 09:36:22;;;;;;;;;;;;;;;23.19;80.11;96910.78;575541;246;68530;-68
2022/06/30 09:39:03;;;;;;;;;;;;;;;23.27;76.22;96909.32;575433;246;68283;-68
2022/06/30 09:41:31;;;;;;;;;;;;;;;23.28;78.70;96910.14;575478;246;65121;-69
2022/06/30 09:43:59;;;;;;;;;;;;;;;23.25;78.92;96906.94;575452;246;68337;-69
2022/06/30 09:46:26;;;;;;;;;;;;;;;23.25;76.22;96911.52;575508;246;65952;-69
2022/06/30 09:48:54;;;;;;;;;;;;;;;23.23;77.38;96908.31;575531;246;62907;-67
2022/06/30 09:51:21;;;;;;;;;;;;;;;23.22;79.20;96901.38;575493;246;66263;-67
2022/06/30 09:54:09;;;;;;;;;;;;;;;23.19;79.88;96905.42;573658;246;69311;-67
2022/06/30 09:56:36;;;;;;;;;;;;;;;23.17;80.26;96904.11;569119;246;62820;-67
2022/06/30 09:59:07;;;;;;;;;;;;;;;23.16;80.62;96899.81;569014;249;66433;-67
2022/06/30 10:01:42;;;;;;;;;;;;;;;23.15;80.78;96899.02;569058;249;68554;-66
2022/06/30 10:04:10;;;;;;;;;;;;;;;23.15;80.84;96903.59;569116;246;62908;-67
2022/06/30 10:06:38;;;;;;;;;;;;;;;23.14;80.97;96900.13;569016;249;68529;-67
2022/06/30 10:09:07;;;;;;;;;;;;;;;23.14;81.00;96897.44;569088;249;68042;-67
2022/06/30 10:11:34;;;;;;;;;;;;;;;23.13;80.37;96901.19;569071;249;65119;-72
2022/06/30 10:14:02;;;;;;;;;;;;;;;23.15;78.61;96893.66;569102;249;67830;-71
2022/06/30 10:16:30;;;;;;;;;;;;;;;23.16;79.97;96900.64;570059;246;73122;-71
2022/06/30 10:18:58;;;;;;;;;;;;;;;23.16;80.70;96886.41;569652;246;67222;-70
2022/06/30 10:21:25;;;;;;;;;;;;;;;23.14;81.13;96889.39;574512;246;68605;-70
2022/06/30 10:23:53;;;;;;;;;;;;;;;23.14;80.98;96883.24;575134;246;67992;-70
2022/06/30 10:29:06;;;;;;;;;;;;;;;23.13;81.05;96882.42;575112;246;66064;-71
2022/06/30 10:31:41;;;;;;;;;;;;;;;23.12;81.12;96880.84;575121;246;66190;-71
2022/06/30 10:34:22;;;;;;;;;;;;;;;23.12;81.09;96874.69;575067;246;65057;-71
2022/06/30 10:36:51;;;;;;;;;;;;;;;23.11;81.19;96879.25;575076;246;68920;-71
2022/06/30 10:39:20;;;;;;;;;;;;;;;23.12;81.23;96875.48;575075;246;68531;-71
2022/06/30 10:41:48;;;;;;;;;;;;;;;23.11;81.32;96873.89;575067;246;65111;-71
2022/06/30 10:44:17;;;;;;;;;;;;;;;23.11;81.25;96871.22;575127;246;68582;-71
2022/06/30 10:46:55;;;;;;;;;;;;;;;23.11;81.45;96873.07;575046;246;66477;-71
2022/06/30 10:49:24;;;;;;;;;;;;;;;23.11;81.34;96871.22;575115;246;64968;-71
2022/06/30 10:51:54;;;;;;;;;;;;;;;23.11;81.46;96867.71;575106;246;65931;-73
2022/06/30 10:54:31;;;;;;;;;;;;;;;23.11;81.47;96862.34;578139;244;66510;-73
2022/06/30 10:56:59;;;;;;;;;;;;;;;23.11;81.31;96867.71;581645;244;62759;-72
2022/06/30 10:59:37;;;;;;;;;;;;;;;23.10;81.40;96864.23;581686;244;69288;-71
2022/06/30 11:02:15;;;;;;;;;;;;;;;23.11;81.43;96865.03;576958;244;68173;-71
2022/06/30 11:04:44;;;;;;;;;;;;;;;23.11;81.42;96873.07;579827;244;65096;-71
2022/06/30 11:07:15;;;;;;;;;;;;;;;23.10;81.55;96866.92;581685;244;68567;-72
2022/06/30 11:09:55;;;;;;;;;;;;;;;23.11;81.49;96859.67;581605;244;68721;-71
2022/06/30 11:12:26;;;;;;;;;;;;;;;23.11;81.52;96852.45;581680;244;64910;-72
2022/06/30 11:14:55;;;;;;;;;;;;;;;23.12;81.92;96861.28;581716;244;68534;-72
2022/06/30 11:17:23;;;;;;;;;;;;;;;23.11;81.73;96852.45;581673;244;68223;-72
2022/06/30 11:20:01;;;;;;;;;;;;;;;23.12;81.78;96861.28;581673;244;65096;-70
2022/06/30 11:22:29;;;;;;;;;;;;;;;23.11;81.87;96848.95;581730;244;68316;-70
2022/06/30 11:24:58;;;;;;;;;;;;;;;23.12;81.99;96848.67;581655;244;66629;-71
2022/06/30 11:27:28;;;;;;;;;;;;;;;23.12;81.92;96843.31;581678;244;63979;-70
2022/06/30 11:29:59;;;;;;;;;;;;;;;23.11;81.95;96844.41;581593;244;65855;-71
2022/06/30 11:32:27;;;;;;;;;;;;;;;23.12;81.77;96847.88;577482;244;66751;-73
2022/06/30 11:34:56;;;;;;;;;;;;;;;23.12;81.97;96853.23;578964;244;63040;-73
2022/06/30 11:37:24;;;;;;;;;;;;;;;23.12;81.91;96847.88;581645;244;68961;-69
2022/06/30 11:40:02;;;;;;;;;;;;;;;23.12;81.97;96843.31;581396;244;69390;-70
2022/06/30 11:42:29;;;;;;;;;;;;;;;23.12;82.28;96848.67;581626;244;64982;-74
2022/06/30 11:44:57;;;;;;;;;;;;;;;23.12;81.67;96848.67;581673;244;68671;-73
2022/06/30 11:47:28;;;;;;;;;;;;;;;23.12;81.79;96845.99;581608;244;68742;-73
2022/06/30 11:49:55;;;;;;;;;;;;;;;23.12;82.33;96845.99;581651;244;65109;-72
2022/06/30 11:52:24;;;;;;;;;;;;;;;23.12;82.14;96847.88;581622;244;68659;-72
2022/06/30 11:54:56;;;;;;;;;;;;;;;23.12;82.29;96840.63;577000;244;68753;-72
2022/06/30 11:57:26;;;;;;;;;;;;;;;23.12;82.06;96832.59;575035;246;64992;-72
2022/06/30 11:59:54;;;;;;;;;;;;;;;23.12;82.02;96829.91;575095;246;72202;-71
2022/06/30 12:02:22;;;;;;;;;;;;;;;23.12;82.19;96827.23;574863;246;66557;-71
2022/06/30 12:04:53;;;;;;;;;;;;;;;23.12;82.13;96827.23;575063;246;62948;-70
2022/06/30 12:07:21;;;;;;;;;;;;;;;23.13;82.21;96828.02;575070;246;66377;-70
2022/06/30 12:09:51;;;;;;;;;;;;;;;23.13;82.21;96822.66;575043;246;66448;-71
2022/06/30 12:12:23;;;;;;;;;;;;;;;23.13;82.14;96822.66;575133;246;65093;-73
2022/06/30 12:14:48;;;;;;;;;;;;;;;23.13;82.28;96823.45;575073;243;68973;-72
2022/06/30 12:17:16;;;;;;;;;;;;;;;23.14;78.21;96818.91;575100;246;68410;-71
2022/06/30 12:19:45;;;;;;;;;;;;;;;23.16;79.20;96822.08;575051;246;64984;-70
2022/06/30 12:22:13;;;;;;;;;;;;;;;23.16;80.18;96828.27;574988;246;68901;-71
2022/06/30 12:24:41;;;;;;;;;;;;;;;23.16;80.83;96816.72;575035;246;69914;-77
2022/06/30 12:27:09;;;;;;;;;;;;;;;23.15;81.11;96821.28;575070;246;65024;-72
2022/06/30 12:29:36;;;;;;;;;;;;;;;23.15;79.39;96805.20;575001;246;68867;-72
2022/06/30 12:32:05;;;;;;;;;;;;;;;23.15;81.32;96805.20;575071;246;68537;-72
2022/06/30 12:34:34;;;;;;;;;;;;;;;23.15;81.24;96799.84;575108;246;64873;-72
2022/06/30 12:37:04;;;;;;;;;;;;;;;23.15;81.68;96802.52;575204;246;66492;-72
2022/06/30 12:39:32;;;;;;;;;;;;;;;23.15;81.95;96799.84;575094;246;68731;-71
2022/06/30 12:42:08;;;;;;;;;;;;;;;23.15;81.37;96799.05;575122;246;65218;-71
2022/06/30 12:44:36;;;;;;;;;;;;;;;23.22;78.94;96794.92;575029;246;66445;-70
2022/06/30 12:47:10;;;;;;;;;;;;;;;23.22;80.01;96794.92;575098;246;68669;-70
2022/06/30 12:49:38;;;;;;;;;;;;;;;23.21;79.89;96800.56;575048;246;62736;-70
2022/06/30 12:52:13;;;;;;;;;;;;;;;23.19;80.80;96794.69;575073;246;66712;-69
2022/06/30 12:54:53;;;;;;;;;;;;;;;23.18;81.29;96799.26;579232;244;48757;-68
2022/06/30 12:57:21;;;;;;;;;;;;;;;23.18;81.94;96801.94;581567;244;65154;-67
2022/06/30 12:59:50;;;;;;;;;;;;;;;23.16;82.00;96793.41;581558;244;66490;-67
2022/06/30 13:02:18;;;;;;;;;;;;;;;23.15;81.76;96791.80;581608;244;66470;-65
2022/06/30 13:04:52;;;;;;;;;;;;;;;23.16;81.11;96798.77;581621;244;64957;-69
2022/06/30 13:07:21;;;;;;;;;;;;;;;23.27;75.11;96796.71;581671;244;68800;-67
2022/06/30 13:09:49;;;;;;;;;;;;;;;23.26;76.28;96790.56;581625;244;68669;-68